Time;durP1;ratioP1;P1;durP2;ratioP2;P2;SDS_P1;SDS_P2;PMS_P1;PMS_P2;Temp;Humidity;BMP_temperature;BMP_pressure;BME280_temperature;BME280_humidity;BME280_pressure;Samples;Min_cycle;Max_cycle;Signal;HPM_P1;HPM_P2
2024/03/29 01:44:16;;;;;;;5.30;2.03;;;8.00;26.40;;;;;;5079277;28;20509;-67
2024/03/29 01:46:44;;;;;;;5.17;1.60;;;8.00;26.40;;;;;;5071943;28;20199;-67
2024/03/29 01:49:12;;;;;;;7.73;2.20;;;8.00;26.40;;;;;;5072100;28;20489;-66
2024/03/29 01:51:39;;;;;;;9.73;1.97;;;8.00;26.40;;;;;;5072160;28;20450;-67
2024/03/29 01:54:08;;;;;;;5.83;1.70;;;8.00;26.40;;;;;;5072202;28;20497;-67
2024/03/29 01:56:36;;;;;;;5.70;1.70;;;8.00;26.40;;;;;;5080633;28;20457;-66
2024/03/29 01:59:05;;;;;;;6.93;2.30;;;8.10;26.50;;;;;;5076957;28;20456;-66
2024/03/29 02:01:33;;;;;;;6.63;1.80;;;8.10;26.50;;;;;;5083110;28;20528;-66
2024/03/29 02:04:02;;;;;;;4.13;1.67;;;8.10;26.50;;;;;;5077057;28;20469;-67
2024/03/29 02:06:29;;;;;;;5.90;2.00;;;8.20;26.60;;;;;;5074530;28;20454;-67
2024/03/29 02:08:56;;;;;;;6.73;2.10;;;8.10;26.50;;;;;;5079832;28;20934;-67
2024/03/29 02:11:23;;;;;;;6.47;2.13;;;8.10;26.50;;;;;;5071713;28;20941;-67
2024/03/29 02:13:50;;;;;;;8.60;1.80;;;8.20;26.50;;;;;;5075547;28;20469;-66
2024/03/29 02:16:17;;;;;;;5.50;1.83;;;8.30;26.60;;;;;;5083916;28;20503;-67
2024/03/29 02:18:45;;;;;;;4.30;1.43;;;8.30;26.60;;;;;;5074887;28;20457;-65
2024/03/29 02:21:12;;;;;;;7.50;1.70;;;8.30;26.60;;;;;;5077154;28;20453;-67
2024/03/29 02:23:48;;;;;;;4.70;1.70;;;8.30;26.60;;;;;;5073869;28;20470;-67
2024/03/29 02:26:16;;;;;;;6.03;1.90;;;8.30;26.60;;;;;;5083448;28;20864;-66
2024/03/29 02:28:43;;;;;;;4.40;1.70;;;8.40;26.70;;;;;;5080604;28;20540;-66
2024/03/29 02:31:11;;;;;;;7.27;1.90;;;8.40;26.70;;;;;;5071532;28;20489;-67
2024/03/29 02:33:37;;;;;;;4.40;1.70;;;8.30;26.60;;;;;;5071565;28;21012;-67
2024/03/29 02:36:06;;;;;;;5.60;1.97;;;8.30;26.60;;;;;;5071788;28;20453;-67
2024/03/29 02:38:32;;;;;;;7.93;1.70;;;8.30;26.60;;;;;;5075536;28;20528;-67
2024/03/29 02:40:59;;;;;;;5.17;1.70;;;8.40;26.70;;;;;;5084256;28;20472;-67
2024/03/29 02:43:27;;;;;;;5.40;1.60;;;8.30;26.60;;;;;;5083815;28;20477;-67
2024/03/29 02:45:54;;;;;;;6.50;1.57;;;8.30;26.60;;;;;;5075826;28;20461;-67
2024/03/29 02:48:21;;;;;;;5.83;1.87;;;8.30;26.60;;;;;;5075030;28;20450;-67
2024/03/29 02:50:46;;;;;;;6.10;2.07;;;8.30;26.60;;;;;;5083646;28;20504;-66
2024/03/29 02:53:13;;;;;;;6.37;1.70;;;8.40;26.70;;;;;;5075042;28;20478;-66
2024/03/29 02:55:41;;;;;;;5.17;1.80;;;8.30;26.60;;;;;;5075192;28;20202;-67
2024/03/29 02:58:08;;;;;;;6.47;1.90;;;8.30;26.60;;;;;;5075143;28;20515;-66
2024/03/29 03:00:35;;;;;;;6.10;2.17;;;8.30;30.00;;;;;;5083621;28;20444;-67
2024/03/29 03:03:01;;;;;;;5.70;1.73;;;8.30;29.80;;;;;;5075260;28;20478;-66
2024/03/29 03:05:29;;;;;;;6.13;2.20;;;8.20;30.10;;;;;;5075200;28;20458;-67
2024/03/29 03:10:59;;;;;;;8.40;2.30;;;8.20;34.40;;;;;;5084608;28;20538;-67
2024/03/29 03:13:27;;;;;;;5.73;3.07;;;8.10;35.50;;;;;;5075066;28;20478;-67
2024/03/29 03:15:55;;;;;;;7.93;3.47;;;8.00;42.60;;;;;;5079323;28;20453;-67
2024/03/29 03:18:22;;;;;;;7.43;3.87;;;8.00;42.90;;;;;;5078117;28;20481;-67
2024/03/29 03:20:52;;;;;;;5.93;3.87;;;7.90;43.00;;;;;;5083407;28;20450;-66
2024/03/29 03:23:19;;;;;;;4.97;3.23;;;7.90;43.00;;;;;;5083366;28;20478;-66
2024/03/29 03:25:45;;;;;;;9.67;3.60;;;7.90;42.90;;;;;;5074690;28;20957;-67
2024/03/29 03:28:12;;;;;;;7.30;4.57;;;7.90;42.90;;;;;;5074385;28;20458;-67
2024/03/29 03:30:39;;;;;;;7.33;5.60;;;7.90;43.00;;;;;;5082035;28;20484;-66
2024/03/29 03:33:07;;;;;;;6.50;5.80;;;7.90;43.00;;;;;;5081696;28;21005;-66
2024/03/29 03:35:33;;;;;;;12.67;6.60;;;7.90;43.00;;;;;;5081938;28;20454;-67
2024/03/29 03:38:00;;;;;;;9.13;6.60;;;7.80;43.00;;;;;;5073328;28;20465;-66
2024/03/29 03:40:25;;;;;;;9.60;6.80;;;7.80;43.00;;;;;;5082013;28;20687;-67
2024/03/29 03:42:52;;;;;;;5.67;5.17;;;7.80;42.90;;;;;;5073552;28;20470;-67
2024/03/29 03:45:18;;;;;;;6.33;5.10;;;7.80;42.90;;;;;;5073525;28;20203;-67
2024/03/29 03:47:45;;;;;;;7.13;4.77;;;7.80;42.90;;;;;;5073305;28;20454;-67
2024/03/29 03:50:12;;;;;;;6.63;4.83;;;7.80;42.90;;;;;;5081577;28;20212;-67
2024/03/29 03:52:39;;;;;;;6.40;4.30;;;7.80;43.80;;;;;;5081357;28;20557;-67
2024/03/29 03:55:05;;;;;;;6.93;3.30;;;7.80;42.80;;;;;;5073265;28;20461;-67
2024/03/29 03:57:33;;;;;;;7.13;3.00;;;7.90;34.30;;;;;;5081516;28;20461;-67
2024/03/29 03:59:59;;;;;;;4.53;2.50;;;8.00;34.30;;;;;;5072500;28;20457;-67
2024/03/29 04:02:26;;;;;;;4.73;2.47;;;8.00;34.30;;;;;;5073638;28;20454;-67
2024/03/29 04:04:52;;;;;;;5.07;2.10;;;8.10;34.20;;;;;;5080997;28;20454;-66
2024/03/29 04:07:21;;;;;;;4.93;2.43;;;8.10;34.20;;;;;;5073475;28;20496;-67
2024/03/29 04:09:50;;;;;;;5.50;2.23;;;8.10;34.30;;;;;;5075960;28;21083;-66
2024/03/29 04:12:17;;;;;;;4.73;1.93;;;8.10;34.20;;;;;;5084657;28;20456;-67
2024/03/29 04:14:42;;;;;;;6.63;2.17;;;8.20;28.70;;;;;;5073475;28;20474;-67
2024/03/29 04:17:09;;;;;;;7.93;2.47;;;8.20;30.20;;;;;;5073119;28;20653;-67
2024/03/29 04:19:35;;;;;;;5.07;2.17;;;8.20;27.30;;;;;;5072957;28;20968;-67
2024/03/29 04:22:02;;;;;;;6.63;2.50;;;8.20;26.70;;;;;;5073330;28;20463;-67
2024/03/29 04:24:29;;;;;;;5.60;2.00;;;8.20;28.60;;;;;;5081421;28;20470;-67
2024/03/29 04:26:56;;;;;;;6.70;2.63;;;8.20;35.30;;;;;;5077325;28;20457;-67
2024/03/29 04:29:22;;;;;;;8.03;3.00;;;8.20;34.60;;;;;;5038062;28;1081795;-66
2024/03/29 04:31:49;;;;;;;5.90;3.00;;;8.10;43.10;;;;;;5082191;28;20489;-67
2024/03/29 04:34:15;;;;;;;5.10;3.20;;;8.00;39.70;;;;;;5073603;28;20224;-66
2024/03/29 04:36:41;;;;;;;5.80;4.20;;;8.00;42.20;;;;;;5081928;28;21043;-66
2024/03/29 04:39:08;;;;;;;5.80;4.30;;;7.90;43.00;;;;;;5073166;28;20231;-66
2024/03/29 04:41:36;;;;;;;8.50;6.20;;;7.80;43.00;;;;;;5081665;28;20458;-66
2024/03/29 04:44:04;;;;;;;8.10;6.67;;;7.80;43.00;;;;;;5073184;28;21009;-66
2024/03/29 04:46:31;;;;;;;8.80;7.93;;;7.80;43.00;;;;;;5080261;28;20503;-67
2024/03/29 04:48:58;;;;;;;11.30;10.50;;;7.70;42.80;;;;;;5080947;28;20457;-66
2024/03/29 04:51:25;;;;;;;16.17;15.17;;;7.70;42.90;;;;;;5072847;28;20478;-66
2024/03/29 04:53:52;;;;;;;27.80;26.40;;;7.60;42.80;;;;;;5073116;28;20471;-66
2024/03/29 04:56:18;;;;;;;37.47;35.70;;;7.60;44.90;;;;;;5081272;28;20949;-67
2024/03/29 04:58:46;;;;;;;32.90;31.50;;;7.60;51.40;;;;;;5080692;28;20469;-67
2024/03/29 05:01:13;;;;;;;31.30;29.90;;;7.50;51.40;;;;;;5079628;28;20191;-68
2024/03/29 05:03:40;;;;;;;42.70;40.83;;;7.50;48.70;;;;;;5076370;28;20474;-66
2024/03/29 05:06:07;;;;;;;44.50;42.50;;;7.50;51.40;;;;;;5084988;28;20450;-66
2024/03/29 05:08:34;;;;;;;33.93;32.20;;;7.50;53.10;;;;;;5074472;28;20457;-66
2024/03/29 05:11:00;;;;;;;16.03;15.07;;;7.50;51.10;;;;;;5072838;28;20489;-67
2024/03/29 05:13:27;;;;;;;23.47;22.17;;;7.60;46.00;;;;;;5081096;28;20481;-67
2024/03/29 05:15:55;;;;;;;57.03;54.93;;;7.60;51.40;;;;;;5081170;28;20960;-68
2024/03/29 05:18:22;;;;;;;117.93;113.97;;;7.60;59.90;;;;;;5080919;28;20458;-67
2024/03/29 05:20:51;;;;;;;189.20;183.03;;;7.50;59.80;;;;;;5072470;28;20450;-67
2024/03/29 05:23:18;;;;;;;299.33;289.23;;;7.50;59.80;;;;;;5080852;28;20478;-67
2024/03/29 05:25:44;;;;;;;310.47;300.37;;;7.40;63.00;;;;;;5075421;28;20956;-67
2024/03/29 05:28:11;;;;;;;328.43;317.83;;;7.40;62.10;;;;;;5077907;28;20480;-67
2024/03/29 05:30:38;;;;;;;384.00;370.90;;;7.30;66.20;;;;;;5072434;28;20556;-67
2024/03/29 05:33:07;;;;;;;463.20;446.20;;;7.40;74.20;;;;;;5072456;28;20470;-67
2024/03/29 05:35:35;;;;;;;504.17;485.57;;;7.30;76.40;;;;;;5073560;28;20929;-67
2024/03/29 05:38:01;;;;;;;585.80;565.33;;;7.30;75.60;;;;;;5084521;28;20453;-67
2024/03/29 05:40:28;;;;;;;677.10;651.60;;;7.30;75.60;;;;;;5075034;28;20446;-67
2024/03/29 05:42:56;;;;;;;703.07;676.00;;;7.30;83.30;;;;;;5072112;28;20981;-68
2024/03/29 05:45:27;;;;;;;741.90;711.83;;;7.30;83.40;;;;;;5080662;28;20473;-68
2024/03/29 05:47:55;;;;;;;799.80;763.53;;;7.30;88.70;;;;;;5072018;28;20879;-68
2024/03/29 05:50:24;;;;;;;775.73;741.37;;;7.20;90.30;;;;;;5071903;28;20937;-67
2024/03/29 05:52:52;;;;;;;837.50;796.00;;;7.30;90.40;;;;;;5072227;28;20842;-67
2024/03/29 05:55:18;;;;;;;859.20;812.40;;;7.30;90.40;;;;;;5072053;28;20450;-66
2024/03/29 05:57:45;;;;;;;894.03;839.30;;;7.20;93.60;;;;;;5080494;28;20450;-67
2024/03/29 06:00:14;;;;;;;908.60;853.00;;;7.20;97.00;;;;;;5072022;28;20533;-67
2024/03/29 06:02:42;;;;;;;934.23;875.77;;;7.20;97.40;;;;;;5071675;28;20450;-67
2024/03/29 06:05:09;;;;;;;940.70;879.97;;;7.20;99.90;;;;;;5072430;28;20446;-68
2024/03/29 06:07:38;;;;;;;951.50;888.50;;;7.20;99.90;;;;;;5080991;28;20452;-68
2024/03/29 06:10:05;;;;;;;939.57;875.47;;;7.20;99.90;;;;;;5077580;28;20456;-67
2024/03/29 06:12:33;;;;;;;927.93;864.63;;;7.20;99.90;;;;;;5082567;28;20456;-67
2024/03/29 06:17:44;;;;;;;920.60;857.83;;;7.30;99.90;;;;;;5072541;28;20802;-68
2024/03/29 06:20:11;;;;;;;921.43;856.43;;;7.30;99.90;;;;;;5078284;28;20453;-67
2024/03/29 06:22:39;;;;;;;920.10;855.27;;;7.40;99.90;;;;;;5081698;28;20493;-67
2024/03/29 06:25:07;;;;;;;931.80;864.70;;;7.40;99.90;;;;;;5071789;28;20458;-67
2024/03/29 06:27:34;;;;;;;913.03;849.77;;;7.50;99.90;;;;;;5080275;28;20849;-67
2024/03/29 06:30:01;;;;;;;911.63;849.80;;;7.60;99.90;;;;;;5071158;28;20464;-67
2024/03/29 06:32:27;;;;;;;909.73;848.23;;;7.60;99.90;;;;;;5080142;28;20481;-67
2024/03/29 06:34:54;;;;;;;904.90;846.27;;;7.70;99.90;;;;;;5071981;28;20980;-67
2024/03/29 06:37:21;;;;;;;897.93;840.33;;;7.70;99.90;;;;;;5080181;28;20472;-67
2024/03/29 06:39:49;;;;;;;893.60;838.30;;;7.80;99.90;;;;;;5071342;28;20450;-68
2024/03/29 06:42:16;;;;;;;881.57;830.27;;;7.80;99.90;;;;;;5071555;28;20450;-67
2024/03/29 06:44:43;;;;;;;870.57;822.40;;;7.90;99.90;;;;;;5071267;28;20993;-67
2024/03/29 06:47:10;;;;;;;835.67;794.60;;;8.00;99.90;;;;;;5080083;28;20451;-67
2024/03/29 06:49:37;;;;;;;827.10;787.43;;;8.10;99.90;;;;;;5071127;28;20451;-67
2024/03/29 06:52:04;;;;;;;778.93;744.40;;;8.20;97.50;;;;;;5071311;28;20486;-67
2024/03/29 06:54:32;;;;;;;784.97;750.40;;;8.30;98.60;;;;;;5080624;28;20497;-67
2024/03/29 06:57:01;;;;;;;802.70;766.77;;;8.40;99.90;;;;;;5082741;28;20491;-67
2024/03/29 06:59:28;;;;;;;768.00;735.73;;;8.50;97.50;;;;;;5082730;28;20456;-68
2024/03/29 07:01:54;;;;;;;731.20;702.00;;;8.60;97.60;;;;;;5075500;28;20449;-67
2024/03/29 07:04:22;;;;;;;828.83;788.93;;;8.70;98.30;;;;;;5075318;28;20513;-67
2024/03/29 07:06:51;;;;;;;837.80;795.40;;;8.70;97.60;;;;;;5071203;28;20461;-67
2024/03/29 07:09:18;;;;;;;840.47;797.37;;;8.80;97.60;;;;;;5070751;28;20535;-66
2024/03/29 07:11:46;;;;;;;817.93;779.57;;;8.90;97.60;;;;;;5070958;28;20496;-65
2024/03/29 07:14:14;;;;;;;819.00;779.83;;;9.00;97.70;;;;;;5077971;28;20469;-67
2024/03/29 07:16:41;;;;;;;827.37;787.17;;;9.20;97.80;;;;;;5080637;28;20485;-67
2024/03/29 07:19:07;;;;;;;817.37;778.80;;;9.40;97.80;;;;;;5070557;28;20458;-67
2024/03/29 07:21:34;;;;;;;771.70;739.27;;;9.60;97.90;;;;;;5072828;28;20941;-67
2024/03/29 07:24:01;;;;;;;755.67;725.03;;;9.60;97.90;;;;;;5080473;28;20485;-66
2024/03/29 07:26:28;;;;;;;697.73;671.67;;;9.70;97.90;;;;;;5074646;28;20454;-67
2024/03/29 07:28:55;;;;;;;558.33;540.37;;;9.80;96.00;;;;;;5074425;28;20461;-67
2024/03/29 07:31:23;;;;;;;487.00;471.93;;;9.90;95.00;;;;;;5082660;28;20505;-67
2024/03/29 07:33:50;;;;;;;452.30;438.60;;;9.90;91.50;;;;;;5074859;28;21027;-67
2024/03/29 07:36:17;;;;;;;352.77;341.77;;;10.00;91.60;;;;;;5074838;28;20450;-67
2024/03/29 07:38:44;;;;;;;295.20;286.37;;;10.00;91.00;;;;;;5082497;28;20514;-67
2024/03/29 07:41:11;;;;;;;254.67;246.77;;;10.10;91.00;;;;;;5074697;28;20450;-67
2024/03/29 07:43:42;;;;;;;220.10;213.27;;;10.20;91.00;;;;;;5074254;28;20477;-67
2024/03/29 07:46:09;;;;;;;201.80;195.43;;;10.30;91.40;;;;;;5080670;28;20449;-67
2024/03/29 07:48:37;;;;;;;205.47;199.07;;;10.30;91.10;;;;;;5075590;28;20450;-67
2024/03/29 07:51:04;;;;;;;157.33;152.27;;;10.40;91.10;;;;;;5074066;28;20477;-67
2024/03/29 07:53:31;;;;;;;169.63;164.30;;;10.50;91.10;;;;;;5082994;28;20477;-66
2024/03/29 07:55:58;;;;;;;162.33;157.13;;;10.60;91.10;;;;;;5079151;28;20437;-66
2024/03/29 07:58:25;;;;;;;102.23;98.70;;;10.70;90.70;;;;;;5078665;28;20458;-65
2024/03/29 08:00:53;;;;;;;100.20;96.67;;;10.80;85.90;;;;;;5073602;28;20486;-67
2024/03/29 08:03:20;;;;;;;88.60;85.30;;;10.90;86.00;;;;;;5081332;28;20474;-67
2024/03/29 08:05:58;;;;;;;81.50;78.43;;;11.00;77.90;;;;;;5076701;28;20449;-67
2024/03/29 08:08:27;;;;;;;70.27;67.47;;;11.10;81.80;;;;;;5076624;28;21108;-66
2024/03/29 08:10:53;;;;;;;46.90;45.00;;;11.20;78.10;;;;;;5080942;28;20953;-67
2024/03/29 08:13:21;;;;;;;53.73;51.60;;;11.20;78.00;;;;;;5080827;28;20477;-65
2024/03/29 08:15:48;;;;;;;44.33;42.57;;;11.20;78.00;;;;;;5076751;28;20453;-67
2024/03/29 08:18:15;;;;;;;39.47;37.87;;;11.20;78.00;;;;;;5084552;28;20495;-66
2024/03/29 08:20:41;;;;;;;35.00;33.57;;;11.30;78.10;;;;;;5076891;28;20458;-67
2024/03/29 08:23:09;;;;;;;28.80;27.40;;;11.40;78.20;;;;;;5079183;28;20474;-66
2024/03/29 08:25:36;;;;;;;23.73;22.63;;;11.50;78.30;;;;;;5081738;28;20453;-67
2024/03/29 08:28:04;;;;;;;12.60;11.90;;;11.50;78.20;;;;;;5081108;28;20486;-66
2024/03/29 08:30:34;;;;;;;15.37;14.50;;;11.50;78.20;;;;;;5072868;28;20468;-67
2024/03/29 08:33:03;;;;;;;13.97;13.17;;;11.50;78.30;;;;;;5072808;28;20490;-65
2024/03/29 08:35:30;;;;;;;14.87;14.03;;;11.50;78.30;;;;;;5080216;28;20516;-64
2024/03/29 08:37:57;;;;;;;14.90;14.03;;;11.60;78.30;;;;;;5080961;28;20489;-65
2024/03/29 08:40:28;;;;;;;16.00;15.10;;;11.60;78.40;;;;;;5081466;28;20466;-67
2024/03/29 08:42:55;;;;;;;15.90;15.10;;;11.70;78.40;;;;;;5072997;28;20473;-66
2024/03/29 08:45:22;;;;;;;18.67;17.77;;;11.70;78.40;;;;;;5072448;28;20846;-67
2024/03/29 08:47:49;;;;;;;20.20;19.20;;;11.90;78.60;;;;;;5081116;28;20450;-64
2024/03/29 08:50:16;;;;;;;18.10;16.90;;;12.00;78.70;;;;;;5072805;28;20450;-67
2024/03/29 08:52:44;;;;;;;11.70;11.00;;;12.20;78.80;;;;;;5083808;28;20486;-67
2024/03/29 08:55:11;;;;;;;9.83;9.23;;;12.30;71.20;;;;;;5078149;28;20450;-67
2024/03/29 08:57:39;;;;;;;9.80;9.10;;;12.50;71.40;;;;;;5080953;28;20531;-64
2024/03/29 09:00:09;;;;;;;9.07;8.37;;;12.60;71.40;;;;;;5080443;28;20485;-66
2024/03/29 09:02:35;;;;;;;11.83;10.83;;;12.70;71.40;;;;;;5081175;28;20903;-67
2024/03/29 09:05:02;;;;;;;7.63;6.83;;;12.80;71.60;;;;;;5077926;28;20457;-67
2024/03/29 09:07:29;;;;;;;8.53;7.03;;;12.90;64.40;;;;;;5074902;28;20450;-67
2024/03/29 09:09:56;;;;;;;6.60;5.90;;;13.10;63.80;;;;;;5080445;28;21029;-66
2024/03/29 09:12:23;;;;;;;11.40;6.30;;;13.40;64.10;;;;;;5070990;28;20868;-66
2024/03/29 09:14:52;;;;;;;6.40;4.07;;;13.60;64.30;;;;;;5071125;28;20452;-68
2024/03/29 09:17:18;;;;;;;7.32;4.00;;;13.90;64.40;;;;;;5077239;28;20456;-66
2024/03/29 09:19:45;;;;;;;6.53;3.57;;;14.10;56.40;;;;;;5070786;28;20240;-66
2024/03/29 09:22:12;;;;;;;8.03;2.53;;;14.40;63.90;;;;;;5070919;28;20451;-66
2024/03/29 09:24:39;;;;;;;6.40;2.47;;;14.50;48.70;;;;;;5079533;28;20497;-66
2024/03/29 09:27:07;;;;;;;4.70;2.50;;;14.60;48.20;;;;;;5071721;28;20504;-67
2024/03/29 09:29:34;;;;;;;10.03;2.23;;;14.70;48.30;;;;;;5072001;28;20497;-67
2024/03/29 09:32:02;;;;;;;6.03;2.27;;;14.90;48.50;;;;;;5072508;28;20477;-68
2024/03/29 09:34:30;;;;;;;4.50;2.00;;;15.00;48.60;;;;;;5073173;28;20527;-67
2024/03/29 09:36:57;;;;;;;7.37;1.33;;;15.10;48.70;;;;;;5080069;28;20790;-67
2024/03/29 09:39:24;;;;;;;5.43;1.43;;;15.10;48.60;;;;;;5080524;28;20462;-67
2024/03/29 09:41:51;;;;;;;4.57;1.53;;;15.00;48.50;;;;;;5072273;28;21019;-67
2024/03/29 09:44:18;;;;;;;6.23;1.50;;;15.20;48.70;;;;;;5079544;28;20480;-67
2024/03/29 09:46:46;;;;;;;5.20;1.00;;;15.20;48.70;;;;;;5072436;28;20462;-67
2024/03/29 09:49:15;;;;;;;4.00;1.37;;;15.30;48.80;;;;;;5071486;28;20884;-67
2024/03/29 09:51:44;;;;;;;4.97;1.20;;;15.50;48.80;;;;;;5080386;28;20874;-68
2024/03/29 09:54:15;;;;;;;4.93;1.20;;;15.90;40.60;;;;;;5078084;28;20473;-67
2024/03/29 09:56:42;;;;;;;3.70;0.93;;;16.10;31.70;;;;;;5081689;28;20825;-67
2024/03/29 09:59:08;;;;;;;4.83;1.30;;;16.20;31.80;;;;;;5079524;28;20454;-67
2024/03/29 10:01:35;;;;;;;5.20;1.10;;;16.50;37.00;;;;;;5071938;28;20457;-67
2024/03/29 10:04:04;;;;;;;5.27;1.20;;;16.70;32.20;;;;;;5076652;28;20445;-68
2024/03/29 10:06:35;;;;;;;7.10;1.65;;;17.00;32.50;;;;;;5073098;28;20853;-66
2024/03/29 10:09:02;;;;;;;4.30;0.87;;;17.20;25.20;;;;;;5071511;28;20597;-67
2024/03/29 10:11:29;;;;;;;4.10;1.00;;;16.90;25.10;;;;;;5080809;28;20507;-68
2024/03/29 10:13:55;;;;;;;6.73;1.20;;;16.50;29.50;;;;;;5079378;28;20476;-68
2024/03/29 10:16:24;;;;;;;4.23;0.90;;;16.60;24.60;;;;;;5080013;28;20847;-67
2024/03/29 10:18:51;;;;;;;5.60;2.37;;;16.40;24.50;;;;;;5083530;28;20831;-68
2024/03/29 10:21:19;;;;;;;6.60;0.93;;;16.20;24.30;;;;;;5092321;28;20463;-67
2024/03/29 10:23:48;;;;;;;4.00;0.90;;;16.30;24.50;;;;;;5092553;28;20469;-68
2024/03/29 10:26:16;;;;;;;6.73;1.33;;;16.50;24.50;;;;;;5092517;28;20453;-68
2024/03/29 10:28:44;;;;;;;4.40;1.17;;;16.40;24.40;;;;;;5072582;28;20466;-67
2024/03/29 10:31:13;;;;;;;5.63;1.40;;;16.40;24.30;;;;;;5071661;28;20465;-68
2024/03/29 10:33:43;;;;;;;5.60;1.10;;;16.30;19.10;;;;;;5071405;28;20486;-67
2024/03/29 10:36:12;;;;;;;6.50;1.60;;;16.40;24.40;;;;;;5071921;28;20541;-68
2024/03/29 10:38:39;;;;;;;4.50;1.20;;;16.70;23.70;;;;;;5081573;28;20485;-67
2024/03/29 10:41:08;;;;;;;6.63;1.00;;;17.10;18.40;;;;;;5083487;28;20972;-68
2024/03/29 10:43:35;;;;;;;5.50;1.10;;;17.30;17.80;;;;;;5082040;28;20470;-68
2024/03/29 10:46:03;;;;;;;4.97;1.50;;;17.50;17.90;;;;;;5071463;28;20476;-67
2024/03/29 10:48:32;;;;;;;4.37;0.97;;;17.80;18.10;;;;;;5071077;28;20891;-68
2024/03/29 10:51:00;;;;;;;4.10;1.20;;;18.20;10.90;;;;;;5080258;28;20458;-68
2024/03/29 10:53:28;;;;;;;3.83;0.77;;;18.50;7.80;;;;;;5079578;28;20486;-68
2024/03/29 10:55:57;;;;;;;4.50;1.00;;;18.40;3.40;;;;;;5071642;28;20450;-68
2024/03/29 10:58:28;;;;;;;4.90;1.10;;;18.50;3.50;;;;;;5073373;28;20460;-67
2024/03/29 11:00:57;;;;;;;4.30;1.00;;;18.90;6.70;;;;;;5088294;28;20445;-68
2024/03/29 11:03:33;;;;;;;6.30;1.97;;;18.90;3.80;;;;;;5078986;28;20470;-68
2024/03/29 11:06:03;;;;;;;4.77;1.00;;;18.70;3.60;;;;;;5088702;28;20453;-68
2024/03/29 11:08:34;;;;;;;4.60;1.13;;;18.80;3.70;;;;;;5078601;28;20841;-68
2024/03/29 11:11:04;;;;;;;5.10;1.20;;;18.60;3.50;;;;;;5081801;28;20561;-66
2024/03/29 11:13:36;;;;;;;7.40;1.77;;;18.70;3.60;;;;;;5075321;28;20485;-68
2024/03/29 11:16:04;;;;;;;4.90;1.23;;;18.60;3.60;;;;;;5075250;28;20461;-68
2024/03/29 11:18:31;;;;;;;4.47;1.07;;;18.30;3.10;;;;;;5074586;28;20833;-67
2024/03/29 11:20:59;;;;;;;4.30;1.13;;;18.10;3.00;;;;;;5075105;28;20450;-68
2024/03/29 11:23:28;;;;;;;4.57;1.20;;;18.20;1.00;;;;;;5083093;28;20469;-68
2024/03/29 11:25:57;;;;;;;6.63;2.40;;;18.40;1.90;;;;;;5083042;28;20881;-68
2024/03/29 11:28:26;;;;;;;6.07;1.93;;;18.30;3.30;;;;;;5082880;28;20461;-68
2024/03/29 11:30:59;;;;;;;4.10;0.90;;;18.40;3.40;;;;;;5078645;28;20845;-68
2024/03/29 11:33:30;;;;;;;5.93;1.33;;;18.10;1.00;;;;;;5086628;28;20559;-68
2024/03/29 11:35:57;;;;;;;6.77;1.33;;;17.90;3.00;;;;;;5074655;28;20470;-67
2024/03/29 11:38:34;;;;;;;4.60;1.00;;;17.60;2.80;;;;;;5074104;28;21004;-68
2024/03/29 11:41:05;;;;;;;4.30;1.10;;;17.10;2.50;;;;;;5074877;28;20892;-68
2024/03/29 11:43:33;;;;;;;3.90;0.80;;;17.20;2.60;;;;;;5082855;28;20465;-68
2024/03/29 11:46:03;;;;;;;4.50;1.10;;;17.20;2.50;;;;;;5074525;28;20468;-68
2024/03/29 11:48:31;;;;;;;4.90;1.20;;;17.30;2.60;;;;;;5082384;28;20446;-68
2024/03/29 11:50:58;;;;;;;4.93;1.20;;;17.20;2.50;;;;;;5074647;28;20545;-67
2024/03/29 11:53:27;;;;;;;4.80;0.93;;;17.00;2.40;;;;;;5082744;28;20482;-68
2024/03/29 11:55:54;;;;;;;4.70;1.37;;;16.80;2.30;;;;;;5074536;28;20485;-68
2024/03/29 11:58:22;;;;;;;5.03;0.80;;;16.70;2.20;;;;;;5074027;28;20465;-68
2024/03/29 12:00:50;;;;;;;4.50;1.10;;;16.60;7.50;;;;;;5074192;28;20460;-68
2024/03/29 12:03:19;;;;;;;10.20;1.10;;;16.30;9.40;;;;;;5074034;28;20985;-68
2024/03/29 12:05:47;;;;;;;4.00;0.90;;;16.00;9.40;;;;;;5082675;28;20446;-67
2024/03/29 12:08:14;;;;;;;4.63;1.17;;;15.80;13.80;;;;;;5080666;28;20449;-68
2024/03/29 12:10:41;;;;;;;4.80;1.33;;;15.60;16.50;;;;;;5076773;28;20454;-68
2024/03/29 12:13:08;;;;;;;4.60;1.10;;;15.40;16.30;;;;;;5082832;28;20489;-68
2024/03/29 12:15:36;;;;;;;5.40;0.90;;;15.50;9.10;;;;;;5073909;28;20934;-68
2024/03/29 12:18:05;;;;;;;4.80;0.97;;;15.50;9.00;;;;;;5073733;28;20465;-68
2024/03/29 12:20:34;;;;;;;4.50;1.07;;;15.60;16.30;;;;;;5083363;28;20495;-67
2024/03/29 12:23:01;;;;;;;5.63;1.30;;;15.60;9.20;;;;;;5085894;28;20461;-68
2024/03/29 12:25:28;;;;;;;5.77;1.20;;;15.50;15.10;;;;;;5085193;28;20828;-68
2024/03/29 12:27:55;;;;;;;7.90;1.10;;;15.60;16.50;;;;;;5081668;28;20454;-67
2024/03/29 12:30:22;;;;;;;4.63;1.37;;;15.90;15.80;;;;;;5081722;28;20458;-67
2024/03/29 12:32:49;;;;;;;5.10;1.23;;;15.90;9.30;;;;;;5082142;28;21020;-68
2024/03/29 12:35:16;;;;;;;4.23;1.07;;;15.80;9.80;;;;;;5073553;28;20458;-68
2024/03/29 12:37:51;;;;;;;4.30;0.90;;;15.90;9.70;;;;;;5081770;28;20454;-67
2024/03/29 12:40:22;;;;;;;5.47;1.10;;;15.60;9.10;;;;;;5073445;28;20449;-67
2024/03/29 12:42:49;;;;;;;4.13;1.10;;;15.70;9.20;;;;;;5073099;28;20471;-68
2024/03/29 12:45:17;;;;;;;4.93;1.33;;;15.90;10.00;;;;;;5080738;28;20453;-68
2024/03/29 12:47:44;;;;;;;5.00;1.20;;;15.80;9.20;;;;;;5074213;28;20458;-68
2024/03/29 12:50:15;;;;;;;5.00;1.40;;;16.00;9.30;;;;;;5081748;28;20450;-68
2024/03/29 12:52:42;;;;;;;5.53;1.60;;;16.10;9.40;;;;;;5081864;28;20517;-68
2024/03/29 12:55:11;;;;;;;5.50;1.20;;;16.20;2.10;;;;;;5073585;28;20454;-67
2024/03/29 12:57:40;;;;;;;4.20;1.07;;;16.30;5.90;;;;;;5082201;28;20458;-68
2024/03/29 13:00:09;;;;;;;12.30;2.03;;;16.40;9.50;;;;;;5072899;28;20461;-68
2024/03/29 13:02:36;;;;;;;4.60;1.17;;;16.40;9.60;;;;;;5073028;28;20447;-68
2024/03/29 13:05:05;;;;;;;7.37;1.30;;;16.50;9.60;;;;;;5081412;28;20450;-68
2024/03/29 13:07:32;;;;;;;5.40;1.20;;;16.50;2.20;;;;;;5073314;28;20461;-67
2024/03/29 13:10:02;;;;;;;4.80;1.00;;;16.60;9.80;;;;;;5072281;28;20458;-68
2024/03/29 13:12:31;;;;;;;4.77;0.93;;;16.70;9.80;;;;;;5081435;28;20933;-68
2024/03/29 13:14:58;;;;;;;4.73;0.90;;;16.90;10.70;;;;;;5081313;28;20450;-66
2024/03/29 13:17:24;;;;;;;4.10;0.80;;;17.10;3.20;;;;;;5073018;28;20464;-67
2024/03/29 13:19:51;;;;;;;4.00;0.90;;;17.60;2.90;;;;;;5080590;28;20457;-68
2024/03/29 13:22:18;;;;;;;4.10;0.80;;;18.10;3.20;;;;;;5072250;28;20972;-67
2024/03/29 13:24:45;;;;;;;4.07;0.70;;;19.20;1.00;;;;;;5072597;28;20474;-68
2024/03/29 13:27:13;;;;;;;5.63;1.03;;;19.40;1.00;;;;;;5072856;28;20442;-68
2024/03/29 13:29:41;;;;;;;4.10;0.80;;;18.90;1.00;;;;;;5080552;28;20454;-68
2024/03/29 13:32:08;;;;;;;5.10;1.00;;;18.30;1.00;;;;;;5078512;28;20456;-68
2024/03/29 13:34:35;;;;;;;4.20;0.80;;;18.20;1.00;;;;;;5075777;28;20497;-67
2024/03/29 13:37:01;;;;;;;3.90;0.70;;;17.90;1.00;;;;;;5079010;28;20450;-67
2024/03/29 13:39:28;;;;;;;4.93;1.10;;;18.20;1.00;;;;;;5071821;28;20454;-69
2024/03/29 13:41:55;;;;;;;4.00;0.70;;;18.40;1.00;;;;;;5072153;28;20512;-67
2024/03/29 13:44:22;;;;;;;4.40;0.80;;;18.60;1.00;;;;;;5072137;28;20469;-68
2024/03/29 13:46:51;;;;;;;4.70;0.87;;;19.00;1.00;;;;;;5072218;28;20830;-68
2024/03/29 13:49:20;;;;;;;4.90;1.40;;;19.40;1.00;;;;;;5080139;28;20848;-68
2024/03/29 13:51:47;;;;;;;5.90;1.23;;;20.00;1.00;;;;;;5080807;28;20465;-68
2024/03/29 13:54:14;;;;;;;4.10;0.77;;;20.30;1.00;;;;;;5072278;28;20498;-67
2024/03/29 13:56:41;;;;;;;4.73;0.93;;;19.60;1.00;;;;;;5072160;28;20460;-68
2024/03/29 13:59:08;;;;;;;9.57;1.20;;;20.00;1.00;;;;;;5072047;28;20460;-67
2024/03/29 14:01:34;;;;;;;6.07;1.00;;;20.20;1.00;;;;;;5072474;28;20562;-68
2024/03/29 14:04:03;;;;;;;4.30;0.80;;;20.20;1.00;;;;;;5080635;28;20470;-67
2024/03/29 14:06:30;;;;;;;5.10;0.80;;;20.40;1.00;;;;;;5072765;28;20525;-68
2024/03/29 14:08:57;;;;;;;5.20;0.93;;;19.60;1.00;;;;;;5079298;28;20450;-67
2024/03/29 14:11:24;;;;;;;4.87;0.67;;;19.10;1.00;;;;;;5072241;28;20458;-68
2024/03/29 14:13:55;;;;;;;3.87;0.70;;;19.30;1.00;;;;;;5080116;28;20553;-68
2024/03/29 14:16:22;;;;;;;5.33;0.80;;;19.80;1.00;;;;;;5080158;28;20454;-68
2024/03/29 14:18:49;;;;;;;6.30;0.77;;;20.00;1.00;;;;;;5074506;28;20468;-68
2024/03/29 14:21:17;;;;;;;4.00;0.80;;;19.90;1.00;;;;;;5077016;28;20529;-68
2024/03/29 14:23:44;;;;;;;5.50;0.77;;;19.60;1.00;;;;;;5082922;28;20467;-68
2024/03/29 14:26:11;;;;;;;3.90;0.70;;;18.90;1.00;;;;;;5083695;28;20453;-68
2024/03/29 14:28:37;;;;;;;4.17;0.83;;;18.80;1.00;;;;;;5074799;28;20741;-68
2024/03/29 14:31:04;;;;;;;4.10;0.80;;;18.50;1.00;;;;;;5078034;28;20466;-68
2024/03/29 14:33:31;;;;;;;4.97;0.80;;;18.50;1.00;;;;;;5075594;28;20596;-68